Syracuse Hancock International Airport
KSYR : now visible

Airfield :











YOU CAN JOIN US ON...

 
LOGIN :

Register | Disclaimer

   EN    FR    IT 

 









Legend :    VFR   Marginal VFR   IFR   Intensive IFR   Very Intensive IFR
Visi :
Ceiling :
>= 8 km
>= 3000ft
5 to 8 km
1000 to 3000 ft
1500m to 5 km
500 to 1000 ft
800 to 1500m
200 to 500 ft
< 800m
< 200 ft
Symbols :   Thunderstorms  Fog  Heavy snow  Heavy precipitations  Wind > 20 kt






- Airport Elevation : 421 ft
- IATA code : SYR


KSYR - Syracuse Hancock International

CURRENT METAR :
  • 072054Z 32008KT 10SM BKN180 OVC250 15/M04 A2976 RMK AO2 SLP076 T01501044 56028

EXPIRED METARs :
  • 071954Z 29008KT 10SM FEW180 BKN250 17/M03 A2979 RMK AO2 SLP085 T01721033
  • 071854Z 30010KT 10SM FEW040 FEW180 BKN250 17/M02 A2981 RMK AO2 SLP093 T01671022

TAF KSYR
Valid from the 07 at 18:00 until the 08 at 18:00 UTC


071726Z 0718/0818 28007KT P6SM SCT100
FM080000 05005KT P6SM OVC035
FM080300 07004KT 6SM -SHRA OVC028
TEMPO 0805/0808 5SM -SHRA BR OVC012
FM081600 33005KT P6SM BKN035 OVC050



MET'MAP, your aeronautical weather chart ! - Copyright ORBIFLY December 2007 - Disclaimer

ORBIFLY MET'MAP TEAM :

Programming & Development : Alexandra Zaïnal
Concept & original design : Baudouin d'Aumeries
Assistance for programming : Marc-Olivier Méhu
Technical & hardware support : Manuel Goepfert

Contact : metmap@orbifly.com




SOURCES & CREDITS :

   NOAA       Earth
Advisory